sensor_id;sensor_type;location;lat;lon;timestamp;temperature;humidity
20740;DHT22;10530;49.968;19.844;2023-07-30T00:01:38;17.40;99.90
20740;DHT22;10530;49.968;19.844;2023-07-30T00:06:41;17.30;99.90
20740;DHT22;10530;49.968;19.844;2023-07-30T00:11:44;17.30;99.90
20740;DHT22;10530;49.968;19.844;2023-07-30T00:16:46;17.30;99.90
20740;DHT22;10530;49.968;19.844;2023-07-30T00:21:49;17.20;99.90
20740;DHT22;10530;49.968;19.844;2023-07-30T00:26:51;17.20;99.90
20740;DHT22;10530;49.968;19.844;2023-07-30T00:31:54;17.20;99.90
20740;DHT22;10530;49.968;19.844;2023-07-30T00:36:57;17.20;99.90
20740;DHT22;10530;49.968;19.844;2023-07-30T00:42:00;17.30;99.90
20740;DHT22;10530;49.968;19.844;2023-07-30T00:47:03;17.30;99.90
20740;DHT22;10530;49.968;19.844;2023-07-30T00:52:07;17.50;99.90
20740;DHT22;10530;49.968;19.844;2023-07-30T00:57:10;17.60;99.90
20740;DHT22;10530;49.968;19.844;2023-07-30T01:02:13;17.80;99.90
20740;DHT22;10530;49.968;19.844;2023-07-30T01:07:16;17.90;99.90
20740;DHT22;10530;49.968;19.844;2023-07-30T01:12:19;17.90;99.90
20740;DHT22;10530;49.968;19.844;2023-07-30T01:17:22;18.00;99.90
20740;DHT22;10530;49.968;19.844;2023-07-30T01:22:25;17.90;99.90
20740;DHT22;10530;49.968;19.844;2023-07-30T01:27:33;18.00;99.90
20740;DHT22;10530;49.968;19.844;2023-07-30T01:32:40;18.10;99.90
20740;DHT22;10530;49.968;19.844;2023-07-30T01:37:44;18.10;99.90
20740;DHT22;10530;49.968;19.844;2023-07-30T01:42:49;18.50;99.90
20740;DHT22;10530;49.968;19.844;2023-07-30T01:47:52;18.70;99.90
20740;DHT22;10530;49.968;19.844;2023-07-30T01:52:55;18.80;99.90
20740;DHT22;10530;49.968;19.844;2023-07-30T01:57:57;18.60;99.90
20740;DHT22;10530;49.968;19.844;2023-07-30T02:03:00;18.20;99.90
20740;DHT22;10530;49.968;19.844;2023-07-30T02:08:03;18.00;99.90
20740;DHT22;10530;49.968;19.844;2023-07-30T02:13:08;17.90;99.90
20740;DHT22;10530;49.968;19.844;2023-07-30T02:18:11;17.80;99.90
20740;DHT22;10530;49.968;19.844;2023-07-30T02:23:15;17.90;99.90
20740;DHT22;10530;49.968;19.844;2023-07-30T02:28:20;17.70;99.90
20740;DHT22;10530;49.968;19.844;2023-07-30T02:33:23;17.50;99.90
20740;DHT22;10530;49.968;19.844;2023-07-30T02:38:25;17.30;99.90
20740;DHT22;10530;49.968;19.844;2023-07-30T02:43:28;17.20;99.90
20740;DHT22;10530;49.968;19.844;2023-07-30T02:48:31;17.00;99.90
20740;DHT22;10530;49.968;19.844;2023-07-30T02:53:34;17.00;99.90
20740;DHT22;10530;49.968;19.844;2023-07-30T02:58:36;16.80;99.90
20740;DHT22;10530;49.968;19.844;2023-07-30T03:03:39;16.70;99.90
20740;DHT22;10530;49.968;19.844;2023-07-30T03:08:43;16.70;99.90
20740;DHT22;10530;49.968;19.844;2023-07-30T03:13:46;16.50;99.90
20740;DHT22;10530;49.968;19.844;2023-07-30T03:18:48;16.60;99.90
20740;DHT22;10530;49.968;19.844;2023-07-30T03:23:51;16.50;99.90
20740;DHT22;10530;49.968;19.844;2023-07-30T03:28:54;16.50;99.90
20740;DHT22;10530;49.968;19.844;2023-07-30T03:33:56;16.30;99.90
20740;DHT22;10530;49.968;19.844;2023-07-30T03:38:59;16.30;99.90
20740;DHT22;10530;49.968;19.844;2023-07-30T03:44:01;16.30;99.90
20740;DHT22;10530;49.968;19.844;2023-07-30T03:49:04;16.50;99.90
20740;DHT22;10530;49.968;19.844;2023-07-30T03:54:07;16.70;99.90
20740;DHT22;10530;49.968;19.844;2023-07-30T03:59:09;17.00;99.90
20740;DHT22;10530;49.968;19.844;2023-07-30T04:04:12;17.10;99.90
20740;DHT22;10530;49.968;19.844;2023-07-30T04:09:14;17.40;99.90
20740;DHT22;10530;49.968;19.844;2023-07-30T04:14:17;17.60;99.90
20740;DHT22;10530;49.968;19.844;2023-07-30T04:19:20;17.70;99.90
20740;DHT22;10530;49.968;19.844;2023-07-30T04:24:23;17.80;99.90
20740;DHT22;10530;49.968;19.844;2023-07-30T04:29:26;18.00;99.90
20740;DHT22;10530;49.968;19.844;2023-07-30T04:34:29;18.20;99.90
20740;DHT22;10530;49.968;19.844;2023-07-30T04:39:35;18.40;99.90
20740;DHT22;10530;49.968;19.844;2023-07-30T04:44:38;18.60;99.90
20740;DHT22;10530;49.968;19.844;2023-07-30T04:49:46;18.70;99.90
20740;DHT22;10530;49.968;19.844;2023-07-30T04:54:49;18.70;99.90
20740;DHT22;10530;49.968;19.844;2023-07-30T04:59:51;18.90;99.90
20740;DHT22;10530;49.968;19.844;2023-07-30T05:04:54;18.90;99.90
20740;DHT22;10530;49.968;19.844;2023-07-30T05:09:57;19.00;99.90
20740;DHT22;10530;49.968;19.844;2023-07-30T05:14:59;19.10;99.90
20740;DHT22;10530;49.968;19.844;2023-07-30T05:20:03;19.20;99.90
20740;DHT22;10530;49.968;19.844;2023-07-30T05:25:06;19.30;99.90
20740;DHT22;10530;49.968;19.844;2023-07-30T05:30:09;19.60;99.90
20740;DHT22;10530;49.968;19.844;2023-07-30T05:35:12;20.00;99.90
20740;DHT22;10530;49.968;19.844;2023-07-30T05:40:15;20.50;99.90
20740;DHT22;10530;49.968;19.844;2023-07-30T05:45:17;20.70;99.90
20740;DHT22;10530;49.968;19.844;2023-07-30T05:50:21;21.10;99.90
20740;DHT22;10530;49.968;19.844;2023-07-30T05:55:23;21.10;99.90
20740;DHT22;10530;49.968;19.844;2023-07-30T06:00:26;21.40;99.90
20740;DHT22;10530;49.968;19.844;2023-07-30T06:05:28;21.70;99.90
20740;DHT22;10530;49.968;19.844;2023-07-30T06:10:36;21.90;99.90
20740;DHT22;10530;49.968;19.844;2023-07-30T06:15:39;21.90;99.90
20740;DHT22;10530;49.968;19.844;2023-07-30T06:20:42;22.20;99.90
20740;DHT22;10530;49.968;19.844;2023-07-30T06:25:44;22.60;99.90
20740;DHT22;10530;49.968;19.844;2023-07-30T06:30:47;22.60;99.90
20740;DHT22;10530;49.968;19.844;2023-07-30T06:35:49;22.70;99.90
20740;DHT22;10530;49.968;19.844;2023-07-30T06:40:52;22.80;99.90
20740;DHT22;10530;49.968;19.844;2023-07-30T06:45:55;23.30;99.90
20740;DHT22;10530;49.968;19.844;2023-07-30T06:50:58;23.20;99.90
20740;DHT22;10530;49.968;19.844;2023-07-30T06:56:01;23.20;99.90
20740;DHT22;10530;49.968;19.844;2023-07-30T07:01:03;23.60;99.90
20740;DHT22;10530;49.968;19.844;2023-07-30T07:06:06;23.70;99.90
20740;DHT22;10530;49.968;19.844;2023-07-30T07:11:09;24.00;99.90
20740;DHT22;10530;49.968;19.844;2023-07-30T07:16:11;24.20;99.90
20740;DHT22;10530;49.968;19.844;2023-07-30T07:21:14;24.20;99.90
20740;DHT22;10530;49.968;19.844;2023-07-30T07:26:17;23.90;99.90
20740;DHT22;10530;49.968;19.844;2023-07-30T07:31:20;24.30;99.90
20740;DHT22;10530;49.968;19.844;2023-07-30T07:36:23;24.10;99.90
20740;DHT22;10530;49.968;19.844;2023-07-30T07:41:25;24.20;99.90
20740;DHT22;10530;49.968;19.844;2023-07-30T07:46:28;24.10;99.90
20740;DHT22;10530;49.968;19.844;2023-07-30T07:51:31;24.20;99.90
20740;DHT22;10530;49.968;19.844;2023-07-30T07:56:34;24.50;99.90
20740;DHT22;10530;49.968;19.844;2023-07-30T08:01:37;24.30;99.90
20740;DHT22;10530;49.968;19.844;2023-07-30T08:06:40;24.40;99.90
20740;DHT22;10530;49.968;19.844;2023-07-30T08:11:42;25.10;99.90
20740;DHT22;10530;49.968;19.844;2023-07-30T08:16:45;24.90;99.90
20740;DHT22;10530;49.968;19.844;2023-07-30T08:21:48;25.50;99.90
20740;DHT22;10530;49.968;19.844;2023-07-30T08:26:51;25.60;99.90
20740;DHT22;10530;49.968;19.844;2023-07-30T08:31:53;26.00;99.90
20740;DHT22;10530;49.968;19.844;2023-07-30T08:36:56;26.20;99.90
20740;DHT22;10530;49.968;19.844;2023-07-30T08:41:59;26.90;99.90
20740;DHT22;10530;49.968;19.844;2023-07-30T08:47:02;26.50;99.90
20740;DHT22;10530;49.968;19.844;2023-07-30T08:52:08;26.10;99.90
20740;DHT22;10530;49.968;19.844;2023-07-30T08:57:11;26.40;99.90
20740;DHT22;10530;49.968;19.844;2023-07-30T09:02:24;26.90;99.90
20740;DHT22;10530;49.968;19.844;2023-07-30T09:07:26;27.10;99.90
20740;DHT22;10530;49.968;19.844;2023-07-30T09:12:33;26.90;99.90
20740;DHT22;10530;49.968;19.844;2023-07-30T09:17:36;27.60;99.90
20740;DHT22;10530;49.968;19.844;2023-07-30T09:22:39;27.40;93.40
20740;DHT22;10530;49.968;19.844;2023-07-30T09:27:50;27.10;97.80
20740;DHT22;10530;49.968;19.844;2023-07-30T09:32:56;27.40;99.90
20740;DHT22;10530;49.968;19.844;2023-07-30T09:38:01;27.40;98.00
20740;DHT22;10530;49.968;19.844;2023-07-30T09:43:06;27.20;99.90
20740;DHT22;10530;49.968;19.844;2023-07-30T09:48:09;26.80;99.90
20740;DHT22;10530;49.968;19.844;2023-07-30T09:53:13;27.20;99.60
20740;DHT22;10530;49.968;19.844;2023-07-30T09:58:17;27.40;99.30
20740;DHT22;10530;49.968;19.844;2023-07-30T10:03:20;27.70;95.90
20740;DHT22;10530;49.968;19.844;2023-07-30T10:08:25;28.30;92.70
20740;DHT22;10530;49.968;19.844;2023-07-30T10:13:30;28.70;92.10
20740;DHT22;10530;49.968;19.844;2023-07-30T10:18:37;28.30;72.40
20740;DHT22;10530;49.968;19.844;2023-07-30T10:29:15;29.00;59.50
20740;DHT22;10530;49.968;19.844;2023-07-30T10:34:18;28.40;56.40
20740;DHT22;10530;49.968;19.844;2023-07-30T10:39:27;28.40;55.10
20740;DHT22;10530;49.968;19.844;2023-07-30T10:44:32;28.20;48.40
20740;DHT22;10530;49.968;19.844;2023-07-30T10:49:37;28.20;69.00
20740;DHT22;10530;49.968;19.844;2023-07-30T10:54:40;28.00;54.60
20740;DHT22;10530;49.968;19.844;2023-07-30T10:59:43;28.20;57.10
20740;DHT22;10530;49.968;19.844;2023-07-30T11:04:46;28.20;48.30
20740;DHT22;10530;49.968;19.844;2023-07-30T11:09:59;28.10;49.50
20740;DHT22;10530;49.968;19.844;2023-07-30T11:15:03;28.10;62.70
20740;DHT22;10530;49.968;19.844;2023-07-30T11:20:06;27.50;53.20
20740;DHT22;10530;49.968;19.844;2023-07-30T11:25:17;27.30;50.70
20740;DHT22;10530;49.968;19.844;2023-07-30T11:30:20;27.10;60.80
20740;DHT22;10530;49.968;19.844;2023-07-30T11:35:23;26.80;82.10
20740;DHT22;10530;49.968;19.844;2023-07-30T11:40:26;27.00;66.40
20740;DHT22;10530;49.968;19.844;2023-07-30T11:45:28;26.50;56.40
20740;DHT22;10530;49.968;19.844;2023-07-30T11:50:48;26.50;84.40
20740;DHT22;10530;49.968;19.844;2023-07-30T11:55:51;26.30;68.40
20740;DHT22;10530;49.968;19.844;2023-07-30T12:00:54;26.20;70.80
20740;DHT22;10530;49.968;19.844;2023-07-30T12:05:57;26.20;85.80
20740;DHT22;10530;49.968;19.844;2023-07-30T12:11:06;26.20;79.10
20740;DHT22;10530;49.968;19.844;2023-07-30T12:16:09;26.10;77.00
20740;DHT22;10530;49.968;19.844;2023-07-30T12:21:12;25.70;79.60
20740;DHT22;10530;49.968;19.844;2023-07-30T12:26:15;25.90;93.50
20740;DHT22;10530;49.968;19.844;2023-07-30T12:31:19;25.70;97.00
20740;DHT22;10530;49.968;19.844;2023-07-30T12:36:21;25.50;91.70
20740;DHT22;10530;49.968;19.844;2023-07-30T12:41:24;25.40;83.10
20740;DHT22;10530;49.968;19.844;2023-07-30T12:46:30;25.20;86.40
20740;DHT22;10530;49.968;19.844;2023-07-30T12:51:34;25.50;84.30
20740;DHT22;10530;49.968;19.844;2023-07-30T12:56:37;25.80;90.60
20740;DHT22;10530;49.968;19.844;2023-07-30T13:01:39;26.00;92.80
20740;DHT22;10530;49.968;19.844;2023-07-30T13:06:46;26.10;76.40
20740;DHT22;10530;49.968;19.844;2023-07-30T13:11:49;26.20;79.70
20740;DHT22;10530;49.968;19.844;2023-07-30T13:16:51;26.20;74.20
20740;DHT22;10530;49.968;19.844;2023-07-30T13:21:54;26.20;68.90
20740;DHT22;10530;49.968;19.844;2023-07-30T13:26:57;26.20;69.10
20740;DHT22;10530;49.968;19.844;2023-07-30T13:32:00;26.60;57.30
20740;DHT22;10530;49.968;19.844;2023-07-30T13:37:03;27.20;54.30
20740;DHT22;10530;49.968;19.844;2023-07-30T13:42:06;26.90;51.30
20740;DHT22;10530;49.968;19.844;2023-07-30T13:47:09;27.20;60.60
20740;DHT22;10530;49.968;19.844;2023-07-30T13:52:15;26.70;58.60
20740;DHT22;10530;49.968;19.844;2023-07-30T13:57:24;26.40;57.20
20740;DHT22;10530;49.968;19.844;2023-07-30T14:02:27;26.10;63.20
20740;DHT22;10530;49.968;19.844;2023-07-30T14:07:30;25.70;67.60
20740;DHT22;10530;49.968;19.844;2023-07-30T14:12:33;25.80;75.10
20740;DHT22;10530;49.968;19.844;2023-07-30T14:17:36;26.30;74.20
20740;DHT22;10530;49.968;19.844;2023-07-30T14:22:38;26.40;80.70
20740;DHT22;10530;49.968;19.844;2023-07-30T14:27:41;26.10;86.70
20740;DHT22;10530;49.968;19.844;2023-07-30T14:32:44;26.30;82.90
20740;DHT22;10530;49.968;19.844;2023-07-30T14:37:46;25.80;76.90
20740;DHT22;10530;49.968;19.844;2023-07-30T14:42:49;25.80;80.50
20740;DHT22;10530;49.968;19.844;2023-07-30T14:47:52;25.60;92.20
20740;DHT22;10530;49.968;19.844;2023-07-30T14:52:55;25.40;87.60
20740;DHT22;10530;49.968;19.844;2023-07-30T14:57:57;25.10;91.10
20740;DHT22;10530;49.968;19.844;2023-07-30T15:03:00;25.00;98.00
20740;DHT22;10530;49.968;19.844;2023-07-30T15:08:03;25.00;99.90
20740;DHT22;10530;49.968;19.844;2023-07-30T15:13:05;25.10;99.90
20740;DHT22;10530;49.968;19.844;2023-07-30T15:18:08;25.30;99.90
20740;DHT22;10530;49.968;19.844;2023-07-30T15:23:12;25.40;99.90
20740;DHT22;10530;49.968;19.844;2023-07-30T15:28:15;25.50;99.90
20740;DHT22;10530;49.968;19.844;2023-07-30T15:33:18;25.70;99.90
20740;DHT22;10530;49.968;19.844;2023-07-30T15:38:20;26.70;96.70
20740;DHT22;10530;49.968;19.844;2023-07-30T15:43:23;27.60;86.30
20740;DHT22;10530;49.968;19.844;2023-07-30T15:48:29;26.60;79.20
20740;DHT22;10530;49.968;19.844;2023-07-30T15:53:33;26.00;90.60
20740;DHT22;10530;49.968;19.844;2023-07-30T15:58:35;26.70;88.00
20740;DHT22;10530;49.968;19.844;2023-07-30T16:03:39;26.60;88.70
20740;DHT22;10530;49.968;19.844;2023-07-30T16:08:41;26.30;78.50
20740;DHT22;10530;49.968;19.844;2023-07-30T16:13:44;26.40;81.60
20740;DHT22;10530;49.968;19.844;2023-07-30T16:18:47;26.30;66.80
20740;DHT22;10530;49.968;19.844;2023-07-30T16:23:50;26.00;66.30
20740;DHT22;10530;49.968;19.844;2023-07-30T16:28:53;26.40;71.70
20740;DHT22;10530;49.968;19.844;2023-07-30T16:33:55;26.00;65.70
20740;DHT22;10530;49.968;19.844;2023-07-30T16:38:58;26.20;78.70
20740;DHT22;10530;49.968;19.844;2023-07-30T16:44:01;26.10;79.00
20740;DHT22;10530;49.968;19.844;2023-07-30T16:49:03;26.00;83.90
20740;DHT22;10530;49.968;19.844;2023-07-30T16:54:06;26.00;80.40
20740;DHT22;10530;49.968;19.844;2023-07-30T16:59:11;25.30;75.60
20740;DHT22;10530;49.968;19.844;2023-07-30T17:04:14;25.10;75.20
20740;DHT22;10530;49.968;19.844;2023-07-30T17:09:17;25.00;82.30
20740;DHT22;10530;49.968;19.844;2023-07-30T17:14:20;24.60;89.10
20740;DHT22;10530;49.968;19.844;2023-07-30T17:19:23;24.40;92.90
20740;DHT22;10530;49.968;19.844;2023-07-30T17:24:26;23.90;99.90
20740;DHT22;10530;49.968;19.844;2023-07-30T17:29:28;23.60;99.90
20740;DHT22;10530;49.968;19.844;2023-07-30T17:34:31;23.20;99.90
20740;DHT22;10530;49.968;19.844;2023-07-30T17:39:35;22.90;99.90
20740;DHT22;10530;49.968;19.844;2023-07-30T17:44:38;22.70;99.90
20740;DHT22;10530;49.968;19.844;2023-07-30T17:49:43;22.50;99.90
20740;DHT22;10530;49.968;19.844;2023-07-30T17:54:49;22.30;99.90
20740;DHT22;10530;49.968;19.844;2023-07-30T17:59:52;22.20;99.90
20740;DHT22;10530;49.968;19.844;2023-07-30T18:04:55;21.90;99.90
20740;DHT22;10530;49.968;19.844;2023-07-30T18:09:58;21.70;99.90
20740;DHT22;10530;49.968;19.844;2023-07-30T18:15:01;21.50;99.90
20740;DHT22;10530;49.968;19.844;2023-07-30T18:20:04;21.10;99.90
20740;DHT22;10530;49.968;19.844;2023-07-30T18:25:07;21.00;99.90
20740;DHT22;10530;49.968;19.844;2023-07-30T18:30:10;20.90;99.90
20740;DHT22;10530;49.968;19.844;2023-07-30T18:35:13;20.80;99.90
20740;DHT22;10530;49.968;19.844;2023-07-30T18:40:16;20.80;99.90
20740;DHT22;10530;49.968;19.844;2023-07-30T18:45:21;20.60;99.90
20740;DHT22;10530;49.968;19.844;2023-07-30T18:50:23;20.50;99.90
20740;DHT22;10530;49.968;19.844;2023-07-30T18:55:26;20.30;99.90
20740;DHT22;10530;49.968;19.844;2023-07-30T19:00:29;20.00;99.90
20740;DHT22;10530;49.968;19.844;2023-07-30T19:05:32;19.90;99.90
20740;DHT22;10530;49.968;19.844;2023-07-30T19:10:35;19.70;99.90
20740;DHT22;10530;49.968;19.844;2023-07-30T19:15:38;19.50;99.90
20740;DHT22;10530;49.968;19.844;2023-07-30T19:20:41;19.30;99.90
20740;DHT22;10530;49.968;19.844;2023-07-30T19:25:50;19.00;99.90
20740;DHT22;10530;49.968;19.844;2023-07-30T19:30:53;18.80;99.90
20740;DHT22;10530;49.968;19.844;2023-07-30T19:35:57;18.70;99.90
20740;DHT22;10530;49.968;19.844;2023-07-30T19:41:00;18.40;99.90
20740;DHT22;10530;49.968;19.844;2023-07-30T19:46:03;18.50;99.90
20740;DHT22;10530;49.968;19.844;2023-07-30T19:51:06;18.30;99.90
20740;DHT22;10530;49.968;19.844;2023-07-30T19:56:11;18.10;99.90
20740;DHT22;10530;49.968;19.844;2023-07-30T20:01:14;18.10;99.90
20740;DHT22;10530;49.968;19.844;2023-07-30T20:06:16;18.00;99.90
20740;DHT22;10530;49.968;19.844;2023-07-30T20:11:21;17.80;99.90
20740;DHT22;10530;49.968;19.844;2023-07-30T20:16:26;17.70;99.90
20740;DHT22;10530;49.968;19.844;2023-07-30T20:21:29;17.60;99.90
20740;DHT22;10530;49.968;19.844;2023-07-30T20:26:32;17.60;99.90
20740;DHT22;10530;49.968;19.844;2023-07-30T20:31:35;17.50;99.90
20740;DHT22;10530;49.968;19.844;2023-07-30T20:36:38;17.40;99.90
20740;DHT22;10530;49.968;19.844;2023-07-30T20:41:41;17.30;99.90
20740;DHT22;10530;49.968;19.844;2023-07-30T20:46:44;17.30;99.90
20740;DHT22;10530;49.968;19.844;2023-07-30T20:51:47;17.20;99.90
20740;DHT22;10530;49.968;19.844;2023-07-30T20:56:50;17.20;99.90
20740;DHT22;10530;49.968;19.844;2023-07-30T21:01:53;17.10;99.90
20740;DHT22;10530;49.968;19.844;2023-07-30T21:06:56;17.20;99.90
20740;DHT22;10530;49.968;19.844;2023-07-30T21:11:58;17.20;99.90
20740;DHT22;10530;49.968;19.844;2023-07-30T21:17:01;17.10;99.90
20740;DHT22;10530;49.968;19.844;2023-07-30T21:22:05;17.10;99.90
20740;DHT22;10530;49.968;19.844;2023-07-30T21:27:08;17.00;99.90
20740;DHT22;10530;49.968;19.844;2023-07-30T21:32:11;17.00;99.90
20740;DHT22;10530;49.968;19.844;2023-07-30T21:37:14;16.90;99.90
20740;DHT22;10530;49.968;19.844;2023-07-30T21:42:17;16.80;99.90
20740;DHT22;10530;49.968;19.844;2023-07-30T21:47:20;16.80;99.90
20740;DHT22;10530;49.968;19.844;2023-07-30T21:52:28;16.80;99.90
20740;DHT22;10530;49.968;19.844;2023-07-30T21:57:32;16.80;99.90
20740;DHT22;10530;49.968;19.844;2023-07-30T22:02:35;16.80;99.90
20740;DHT22;10530;49.968;19.844;2023-07-30T22:07:38;16.70;99.90
20740;DHT22;10530;49.968;19.844;2023-07-30T22:12:40;16.60;99.90
20740;DHT22;10530;49.968;19.844;2023-07-30T22:17:43;16.50;99.90
20740;DHT22;10530;49.968;19.844;2023-07-30T22:22:46;16.40;99.90
20740;DHT22;10530;49.968;19.844;2023-07-30T22:27:48;16.30;99.90
20740;DHT22;10530;49.968;19.844;2023-07-30T22:33:10;16.30;99.90
20740;DHT22;10530;49.968;19.844;2023-07-30T22:38:12;16.20;99.90
20740;DHT22;10530;49.968;19.844;2023-07-30T22:43:15;16.10;99.90
20740;DHT22;10530;49.968;19.844;2023-07-30T22:48:18;16.00;99.90
20740;DHT22;10530;49.968;19.844;2023-07-30T22:53:20;16.00;99.90
20740;DHT22;10530;49.968;19.844;2023-07-30T22:58:23;16.00;99.90
20740;DHT22;10530;49.968;19.844;2023-07-30T23:03:26;16.00;99.90
20740;DHT22;10530;49.968;19.844;2023-07-30T23:08:29;16.00;99.90
20740;DHT22;10530;49.968;19.844;2023-07-30T23:13:31;16.10;99.90
20740;DHT22;10530;49.968;19.844;2023-07-30T23:18:34;16.00;99.90
20740;DHT22;10530;49.968;19.844;2023-07-30T23:23:38;16.10;99.90
20740;DHT22;10530;49.968;19.844;2023-07-30T23:28:41;16.20;99.90
20740;DHT22;10530;49.968;19.844;2023-07-30T23:33:45;16.20;99.90
20740;DHT22;10530;49.968;19.844;2023-07-30T23:38:49;16.10;99.90
20740;DHT22;10530;49.968;19.844;2023-07-30T23:43:51;16.30;99.90
20740;DHT22;10530;49.968;19.844;2023-07-30T23:48:54;16.20;99.90
20740;DHT22;10530;49.968;19.844;2023-07-30T23:53:58;16.20;99.90
20740;DHT22;10530;49.968;19.844;2023-07-30T23:59:01;16.10;99.90
